sensor_id;sensor_type;location;lat;lon;timestamp;P1;durP1;ratioP1;P2;durP2;ratioP2
56413;SDS011;42318;48.452;19.526;2023-03-21T00:01:59;4.47;;;2.92;;
56413;SDS011;42318;48.452;19.526;2023-03-21T00:09:30;3.13;;;2.67;;
56413;SDS011;42318;48.452;19.526;2023-03-21T00:17:01;4.43;;;2.97;;
56413;SDS011;42318;48.452;19.526;2023-03-21T00:24:33;3.87;;;2.70;;
56413;SDS011;42318;48.452;19.526;2023-03-21T00:32:05;3.38;;;2.58;;
56413;SDS011;42318;48.452;19.526;2023-03-21T00:39:36;5.32;;;2.70;;
56413;SDS011;42318;48.452;19.526;2023-03-21T00:47:08;4.05;;;2.60;;
56413;SDS011;42318;48.452;19.526;2023-03-21T00:54:40;4.38;;;2.78;;
56413;SDS011;42318;48.452;19.526;2023-03-21T01:02:11;2.85;;;2.40;;
56413;SDS011;42318;48.452;19.526;2023-03-21T01:09:44;4.45;;;3.05;;
56413;SDS011;42318;48.452;19.526;2023-03-21T01:17:14;4.20;;;2.83;;
56413;SDS011;42318;48.452;19.526;2023-03-21T01:24:45;3.15;;;2.38;;
56413;SDS011;42318;48.452;19.526;2023-03-21T01:32:16;4.03;;;2.65;;
56413;SDS011;42318;48.452;19.526;2023-03-21T01:39:47;4.20;;;2.75;;
56413;SDS011;42318;48.452;19.526;2023-03-21T01:47:18;4.00;;;2.42;;
56413;SDS011;42318;48.452;19.526;2023-03-21T01:54:48;3.10;;;2.30;;
56413;SDS011;42318;48.452;19.526;2023-03-21T02:02:25;3.15;;;2.00;;
56413;SDS011;42318;48.452;19.526;2023-03-21T02:09:59;3.22;;;2.33;;
56413;SDS011;42318;48.452;19.526;2023-03-21T02:40:38;3.63;;;2.55;;
56413;SDS011;42318;48.452;19.526;2023-03-21T02:48:16;3.78;;;2.45;;
56413;SDS011;42318;48.452;19.526;2023-03-21T02:55:51;3.60;;;2.42;;
56413;SDS011;42318;48.452;19.526;2023-03-21T03:03:24;3.10;;;2.50;;
56413;SDS011;42318;48.452;19.526;2023-03-21T03:26:31;3.35;;;2.33;;
56413;SDS011;42318;48.452;19.526;2023-03-21T03:34:10;3.17;;;2.65;;
56413;SDS011;42318;48.452;19.526;2023-03-21T03:41:48;2.95;;;2.20;;
56413;SDS011;42318;48.452;19.526;2023-03-21T03:49:23;3.80;;;2.55;;
56413;SDS011;42318;48.452;19.526;2023-03-21T03:56:58;2.88;;;2.15;;
56413;SDS011;42318;48.452;19.526;2023-03-21T04:04:29;3.90;;;2.47;;
56413;SDS011;42318;48.452;19.526;2023-03-21T04:12:01;2.50;;;2.10;;
56413;SDS011;42318;48.452;19.526;2023-03-21T04:19:32;2.75;;;2.05;;
56413;SDS011;42318;48.452;19.526;2023-03-21T04:27:03;3.35;;;2.47;;
56413;SDS011;42318;48.452;19.526;2023-03-21T04:34:35;3.72;;;2.28;;
56413;SDS011;42318;48.452;19.526;2023-03-21T04:42:09;3.65;;;2.45;;
56413;SDS011;42318;48.452;19.526;2023-03-21T04:49:40;3.10;;;2.38;;
56413;SDS011;42318;48.452;19.526;2023-03-21T04:57:15;3.20;;;2.33;;
56413;SDS011;42318;48.452;19.526;2023-03-21T05:04:46;3.78;;;2.30;;
56413;SDS011;42318;48.452;19.526;2023-03-21T05:12:16;3.08;;;2.30;;
56413;SDS011;42318;48.452;19.526;2023-03-21T05:19:48;3.13;;;2.10;;
56413;SDS011;42318;48.452;19.526;2023-03-21T05:27:22;3.25;;;2.30;;
56413;SDS011;42318;48.452;19.526;2023-03-21T05:35:04;3.03;;;2.43;;
56413;SDS011;42318;48.452;19.526;2023-03-21T05:42:36;2.90;;;2.10;;
56413;SDS011;42318;48.452;19.526;2023-03-21T05:50:07;3.53;;;2.58;;
56413;SDS011;42318;48.452;19.526;2023-03-21T05:57:38;3.28;;;2.45;;
56413;SDS011;42318;48.452;19.526;2023-03-21T06:05:10;3.83;;;2.20;;
56413;SDS011;42318;48.452;19.526;2023-03-21T06:12:41;3.53;;;2.22;;
56413;SDS011;42318;48.452;19.526;2023-03-21T06:20:12;3.90;;;2.40;;
56413;SDS011;42318;48.452;19.526;2023-03-21T06:27:43;2.83;;;2.17;;
56413;SDS011;42318;48.452;19.526;2023-03-21T06:35:14;3.08;;;2.13;;
56413;SDS011;42318;48.452;19.526;2023-03-21T06:42:45;2.70;;;1.90;;
56413;SDS011;42318;48.452;19.526;2023-03-21T06:50:15;3.08;;;2.20;;
56413;SDS011;42318;48.452;19.526;2023-03-21T06:57:47;3.03;;;2.03;;
56413;SDS011;42318;48.452;19.526;2023-03-21T07:05:17;2.40;;;1.88;;
56413;SDS011;42318;48.452;19.526;2023-03-21T07:12:48;2.78;;;2.15;;
56413;SDS011;42318;48.452;19.526;2023-03-21T07:20:19;2.95;;;2.15;;
56413;SDS011;42318;48.452;19.526;2023-03-21T07:27:50;3.75;;;2.08;;
56413;SDS011;42318;48.452;19.526;2023-03-21T07:35:21;2.72;;;2.22;;
56413;SDS011;42318;48.452;19.526;2023-03-21T07:42:52;2.63;;;2.10;;
56413;SDS011;42318;48.452;19.526;2023-03-21T07:50:23;4.57;;;2.00;;
56413;SDS011;42318;48.452;19.526;2023-03-21T07:57:54;3.03;;;2.28;;
56413;SDS011;42318;48.452;19.526;2023-03-21T08:05:34;3.28;;;2.10;;
56413;SDS011;42318;48.452;19.526;2023-03-21T08:13:06;3.22;;;2.03;;
56413;SDS011;42318;48.452;19.526;2023-03-21T08:20:37;3.60;;;2.30;;
56413;SDS011;42318;48.452;19.526;2023-03-21T08:28:08;3.47;;;2.30;;
56413;SDS011;42318;48.452;19.526;2023-03-21T08:35:39;4.00;;;2.10;;
56413;SDS011;42318;48.452;19.526;2023-03-21T08:43:10;2.53;;;1.92;;
56413;SDS011;42318;48.452;19.526;2023-03-21T08:50:41;3.13;;;2.13;;
56413;SDS011;42318;48.452;19.526;2023-03-21T08:58:12;2.15;;;1.90;;
56413;SDS011;42318;48.452;19.526;2023-03-21T09:05:43;3.00;;;2.10;;
56413;SDS011;42318;48.452;19.526;2023-03-21T09:13:15;2.90;;;2.10;;
56413;SDS011;42318;48.452;19.526;2023-03-21T09:20:46;2.72;;;2.13;;
56413;SDS011;42318;48.452;19.526;2023-03-21T09:28:17;2.97;;;1.88;;
56413;SDS011;42318;48.452;19.526;2023-03-21T09:35:49;2.78;;;2.17;;
56413;SDS011;42318;48.452;19.526;2023-03-21T09:51:07;3.30;;;2.17;;
56413;SDS011;42318;48.452;19.526;2023-03-21T09:58:44;3.28;;;2.17;;
56413;SDS011;42318;48.452;19.526;2023-03-21T10:06:22;2.30;;;1.98;;
56413;SDS011;42318;48.452;19.526;2023-03-21T10:14:06;2.13;;;1.73;;
56413;SDS011;42318;48.452;19.526;2023-03-21T10:21:50;3.97;;;2.30;;
56413;SDS011;42318;48.452;19.526;2023-03-21T10:29:22;2.13;;;1.67;;
56413;SDS011;42318;48.452;19.526;2023-03-21T10:36:57;2.75;;;1.77;;
56413;SDS011;42318;48.452;19.526;2023-03-21T10:44:34;2.67;;;2.00;;
56413;SDS011;42318;48.452;19.526;2023-03-21T10:52:06;2.65;;;1.85;;
56413;SDS011;42318;48.452;19.526;2023-03-21T10:59:44;2.70;;;1.75;;
56413;SDS011;42318;48.452;19.526;2023-03-21T11:07:20;3.00;;;2.13;;
56413;SDS011;42318;48.452;19.526;2023-03-21T11:14:54;2.50;;;1.60;;
56413;SDS011;42318;48.452;19.526;2023-03-21T11:22:36;2.90;;;1.97;;
56413;SDS011;42318;48.452;19.526;2023-03-21T11:30:13;2.00;;;1.40;;
56413;SDS011;42318;48.452;19.526;2023-03-21T11:37:51;2.80;;;1.88;;
56413;SDS011;42318;48.452;19.526;2023-03-21T11:45:24;2.55;;;1.55;;
56413;SDS011;42318;48.452;19.526;2023-03-21T12:01:00;2.20;;;1.63;;
56413;SDS011;42318;48.452;19.526;2023-03-21T12:17:25;2.33;;;1.58;;
56413;SDS011;42318;48.452;19.526;2023-03-21T12:24:41;2.22;;;1.42;;
56413;SDS011;42318;48.452;19.526;2023-03-21T12:41:18;2.47;;;1.67;;
56413;SDS011;42318;48.452;19.526;2023-03-21T12:48:30;2.93;;;1.53;;
56413;SDS011;42318;48.452;19.526;2023-03-21T12:56:04;3.05;;;1.95;;
56413;SDS011;42318;48.452;19.526;2023-03-21T13:03:41;1.60;;;1.50;;
56413;SDS011;42318;48.452;19.526;2023-03-21T13:11:28;2.63;;;1.83;;
56413;SDS011;42318;48.452;19.526;2023-03-21T13:26:38;2.40;;;2.03;;
56413;SDS011;42318;48.452;19.526;2023-03-21T13:34:10;1.80;;;1.65;;
56413;SDS011;42318;48.452;19.526;2023-03-21T13:41:43;1.80;;;1.65;;
56413;SDS011;42318;48.452;19.526;2023-03-21T13:49:25;2.50;;;1.92;;
56413;SDS011;42318;48.452;19.526;2023-03-21T13:56:58;3.03;;;2.08;;
56413;SDS011;42318;48.452;19.526;2023-03-21T14:04:33;4.03;;;2.00;;
56413;SDS011;42318;48.452;19.526;2023-03-21T14:12:06;1.73;;;1.50;;
56413;SDS011;42318;48.452;19.526;2023-03-21T14:19:43;2.95;;;1.95;;
56413;SDS011;42318;48.452;19.526;2023-03-21T14:27:13;2.15;;;1.70;;
56413;SDS011;42318;48.452;19.526;2023-03-21T14:34:45;1.88;;;1.50;;
56413;SDS011;42318;48.452;19.526;2023-03-21T14:42:15;2.50;;;2.05;;
56413;SDS011;42318;48.452;19.526;2023-03-21T14:49:47;5.38;;;2.13;;
56413;SDS011;42318;48.452;19.526;2023-03-21T14:57:20;2.50;;;1.80;;
56413;SDS011;42318;48.452;19.526;2023-03-21T15:04:55;4.00;;;1.70;;
56413;SDS011;42318;48.452;19.526;2023-03-21T15:12:28;3.33;;;1.73;;
56413;SDS011;42318;48.452;19.526;2023-03-21T15:19:59;3.58;;;1.92;;
56413;SDS011;42318;48.452;19.526;2023-03-21T15:27:31;2.10;;;1.55;;
56413;SDS011;42318;48.452;19.526;2023-03-21T15:35:11;2.60;;;1.88;;
56413;SDS011;42318;48.452;19.526;2023-03-21T15:42:45;4.20;;;1.88;;
56413;SDS011;42318;48.452;19.526;2023-03-21T15:50:38;2.38;;;1.80;;
56413;SDS011;42318;48.452;19.526;2023-03-21T15:58:23;4.05;;;1.92;;
56413;SDS011;42318;48.452;19.526;2023-03-21T16:13:43;3.75;;;1.88;;
56413;SDS011;42318;48.452;19.526;2023-03-21T16:21:16;2.30;;;1.70;;
56413;SDS011;42318;48.452;19.526;2023-03-21T16:28:48;3.63;;;1.73;;
56413;SDS011;42318;48.452;19.526;2023-03-21T16:36:22;2.47;;;1.70;;
56413;SDS011;42318;48.452;19.526;2023-03-21T16:43:54;2.67;;;1.60;;
56413;SDS011;42318;48.452;19.526;2023-03-21T16:51:27;2.67;;;1.75;;
56413;SDS011;42318;48.452;19.526;2023-03-21T16:59:01;2.30;;;1.77;;
56413;SDS011;42318;48.452;19.526;2023-03-21T17:06:33;2.80;;;1.63;;
56413;SDS011;42318;48.452;19.526;2023-03-21T17:14:10;2.45;;;1.80;;
56413;SDS011;42318;48.452;19.526;2023-03-21T17:21:42;3.80;;;1.80;;
56413;SDS011;42318;48.452;19.526;2023-03-21T17:29:13;2.60;;;1.67;;
56413;SDS011;42318;48.452;19.526;2023-03-21T17:36:45;4.35;;;1.60;;
56413;SDS011;42318;48.452;19.526;2023-03-21T17:44:17;2.87;;;2.00;;
56413;SDS011;42318;48.452;19.526;2023-03-21T17:51:48;2.50;;;1.50;;
56413;SDS011;42318;48.452;19.526;2023-03-21T17:59:19;2.22;;;1.40;;
56413;SDS011;42318;48.452;19.526;2023-03-21T18:06:50;3.63;;;1.80;;
56413;SDS011;42318;48.452;19.526;2023-03-21T18:14:23;2.65;;;1.50;;
56413;SDS011;42318;48.452;19.526;2023-03-21T18:21:54;2.42;;;1.58;;
56413;SDS011;42318;48.452;19.526;2023-03-21T18:29:25;2.33;;;1.45;;
56413;SDS011;42318;48.452;19.526;2023-03-21T18:36:56;3.33;;;1.50;;
56413;SDS011;42318;48.452;19.526;2023-03-21T18:44:27;2.92;;;1.90;;
56413;SDS011;42318;48.452;19.526;2023-03-21T18:52:02;4.18;;;2.28;;
56413;SDS011;42318;48.452;19.526;2023-03-21T18:59:34;5.17;;;2.20;;
56413;SDS011;42318;48.452;19.526;2023-03-21T19:07:06;3.17;;;2.30;;
56413;SDS011;42318;48.452;19.526;2023-03-21T19:14:37;5.57;;;2.73;;
56413;SDS011;42318;48.452;19.526;2023-03-21T19:22:08;4.40;;;2.45;;
56413;SDS011;42318;48.452;19.526;2023-03-21T19:29:40;5.22;;;2.35;;
56413;SDS011;42318;48.452;19.526;2023-03-21T19:37:11;3.22;;;1.92;;
56413;SDS011;42318;48.452;19.526;2023-03-21T19:44:42;3.30;;;2.03;;
56413;SDS011;42318;48.452;19.526;2023-03-21T19:52:12;4.00;;;2.20;;
56413;SDS011;42318;48.452;19.526;2023-03-21T19:59:43;2.63;;;2.00;;
56413;SDS011;42318;48.452;19.526;2023-03-21T20:07:14;3.58;;;2.33;;
56413;SDS011;42318;48.452;19.526;2023-03-21T20:14:45;4.85;;;2.78;;
56413;SDS011;42318;48.452;19.526;2023-03-21T20:29:48;2.88;;;1.90;;
56413;SDS011;42318;48.452;19.526;2023-03-21T20:37:20;2.65;;;1.98;;
56413;SDS011;42318;48.452;19.526;2023-03-21T20:44:50;3.13;;;2.00;;
56413;SDS011;42318;48.452;19.526;2023-03-21T20:52:23;2.58;;;1.80;;
56413;SDS011;42318;48.452;19.526;2023-03-21T21:07:27;3.63;;;2.00;;
56413;SDS011;42318;48.452;19.526;2023-03-21T21:14:58;3.23;;;2.03;;
56413;SDS011;42318;48.452;19.526;2023-03-21T21:22:29;4.00;;;2.15;;
56413;SDS011;42318;48.452;19.526;2023-03-21T21:30:00;3.63;;;2.00;;
56413;SDS011;42318;48.452;19.526;2023-03-21T21:37:32;3.43;;;2.30;;
56413;SDS011;42318;48.452;19.526;2023-03-21T21:45:03;3.08;;;2.30;;
56413;SDS011;42318;48.452;19.526;2023-03-21T21:52:34;3.30;;;2.35;;
56413;SDS011;42318;48.452;19.526;2023-03-21T22:00:06;4.00;;;2.53;;
56413;SDS011;42318;48.452;19.526;2023-03-21T22:07:43;2.92;;;2.10;;
56413;SDS011;42318;48.452;19.526;2023-03-21T22:15:14;4.28;;;2.15;;
56413;SDS011;42318;48.452;19.526;2023-03-21T22:22:47;3.00;;;1.88;;
56413;SDS011;42318;48.452;19.526;2023-03-21T22:30:18;3.30;;;2.22;;
56413;SDS011;42318;48.452;19.526;2023-03-21T22:37:49;3.13;;;2.20;;
56413;SDS011;42318;48.452;19.526;2023-03-21T22:45:20;3.15;;;2.30;;
56413;SDS011;42318;48.452;19.526;2023-03-21T22:52:50;2.85;;;2.10;;
56413;SDS011;42318;48.452;19.526;2023-03-21T23:00:21;4.55;;;2.38;;
56413;SDS011;42318;48.452;19.526;2023-03-21T23:07:52;3.30;;;2.35;;
56413;SDS011;42318;48.452;19.526;2023-03-21T23:15:23;3.85;;;2.38;;
56413;SDS011;42318;48.452;19.526;2023-03-21T23:22:54;4.18;;;2.80;;
56413;SDS011;42318;48.452;19.526;2023-03-21T23:30:25;3.30;;;1.95;;
56413;SDS011;42318;48.452;19.526;2023-03-21T23:37:55;3.63;;;2.50;;
56413;SDS011;42318;48.452;19.526;2023-03-21T23:45:26;4.18;;;2.53;;
56413;SDS011;42318;48.452;19.526;2023-03-21T23:52:57;3.00;;;2.25;;
